Time;durP1;ratioP1;P1;durP2;ratioP2;P2;SDS_P1;SDS_P2;PMS_P1;PMS_P2;Temp;Humidity;BMP_temperature;BMP_pressure;BME280_temperature;BME280_humidity;BME280_pressure;Samples;Min_cycle;Max_cycle;Signal;HPM_P1;HPM_P2
2023/05/21 00:00:11;;;;;;;6.43;5.82;;;17.50;99.90;;;;;;5116417;28;20434;-57
2023/05/21 00:02:39;;;;;;;6.07;5.35;;;17.40;99.90;;;;;;5114785;28;20510;-57
2023/05/21 00:05:10;;;;;;;6.87;6.27;;;17.40;99.90;;;;;;5116795;28;20428;-57
2023/05/21 00:07:37;;;;;;;8.40;6.82;;;17.40;99.90;;;;;;5117947;28;20529;-57
2023/05/21 00:10:04;;;;;;;8.40;7.60;;;17.40;99.90;;;;;;5118093;28;20514;-57
2023/05/21 00:12:33;;;;;;;6.20;5.60;;;17.40;99.90;;;;;;5116761;28;20423;-57
2023/05/21 00:15:01;;;;;;;7.60;6.85;;;17.40;99.90;;;;;;5117317;28;20899;-57
2023/05/21 00:17:28;;;;;;;7.22;6.50;;;17.40;99.90;;;;;;5116718;28;20451;-57
2023/05/21 00:19:56;;;;;;;8.60;5.97;;;17.40;99.90;;;;;;5116365;28;20424;-57
2023/05/21 00:22:23;;;;;;;8.17;7.03;;;17.30;99.90;;;;;;5117761;28;20510;-58
2023/05/21 00:24:50;;;;;;;7.45;6.13;;;17.30;99.90;;;;;;5116104;28;20455;-57
2023/05/21 00:27:17;;;;;;;6.45;5.75;;;17.30;99.90;;;;;;5116050;28;20420;-58
2023/05/21 00:29:46;;;;;;;6.60;6.00;;;17.30;99.90;;;;;;5116368;28;20796;-59
2023/05/21 00:32:13;;;;;;;7.75;6.90;;;17.30;99.90;;;;;;5115454;28;20412;-58
2023/05/21 00:34:40;;;;;;;7.05;5.50;;;17.30;99.90;;;;;;5115659;28;20424;-58
2023/05/21 00:37:08;;;;;;;6.73;6.13;;;17.20;99.90;;;;;;5115686;28;20416;-58
2023/05/21 00:39:35;;;;;;;6.25;5.43;;;17.20;99.90;;;;;;5115972;28;20427;-58
2023/05/21 00:42:03;;;;;;;6.85;6.25;;;17.10;99.90;;;;;;5115422;28;20419;-58
2023/05/21 00:44:34;;;;;;;7.00;6.30;;;17.10;99.90;;;;;;5115200;28;20523;-58
2023/05/21 00:47:05;;;;;;;8.13;6.85;;;17.20;99.90;;;;;;5115003;28;20424;-58
2023/05/21 00:49:32;;;;;;;7.50;6.70;;;17.20;99.90;;;;;;5115675;28;20428;-58
2023/05/21 00:52:00;;;;;;;7.15;6.45;;;17.10;99.90;;;;;;5115188;28;20595;-58
2023/05/21 00:54:28;;;;;;;7.35;6.65;;;17.10;99.90;;;;;;5114671;28;20421;-59
2023/05/21 00:56:55;;;;;;;7.20;6.50;;;17.10;99.90;;;;;;5117445;28;20604;-58
2023/05/21 00:59:23;;;;;;;8.33;6.80;;;17.00;99.90;;;;;;5116350;28;20903;-59
2023/05/21 01:01:54;;;;;;;7.30;6.60;;;17.00;99.90;;;;;;5116510;28;20827;-57
2023/05/21 01:04:23;;;;;;;8.95;7.30;;;17.00;99.90;;;;;;5116167;28;20432;-58
2023/05/21 01:06:52;;;;;;;8.77;7.47;;;17.00;99.90;;;;;;5116645;28;20414;-58
2023/05/21 01:09:19;;;;;;;7.90;7.20;;;17.00;99.90;;;;;;5116692;28;20772;-58
2023/05/21 01:11:48;;;;;;;8.63;7.63;;;16.90;99.90;;;;;;5116710;28;20510;-60
2023/05/21 01:14:16;;;;;;;8.07;6.70;;;16.90;99.90;;;;;;5116180;28;20439;-59
2023/05/21 01:16:46;;;;;;;7.80;7.00;;;16.90;99.90;;;;;;5115760;28;20412;-59
2023/05/21 01:19:17;;;;;;;7.40;6.70;;;16.90;99.90;;;;;;5116058;28;20481;-58
2023/05/21 01:21:49;;;;;;;7.88;6.07;;;16.90;99.90;;;;;;5116324;28;20416;-58
2023/05/21 01:24:18;;;;;;;7.82;7.03;;;16.90;99.90;;;;;;5116160;28;20437;-58
2023/05/21 01:26:45;;;;;;;8.30;7.40;;;16.90;99.90;;;;;;5116695;28;20512;-58
2023/05/21 01:29:13;;;;;;;8.80;7.53;;;16.80;99.90;;;;;;5115929;28;20958;-58
2023/05/21 01:31:54;;;;;;;8.02;7.22;;;16.90;99.90;;;;;;5116255;28;20416;-58
2023/05/21 01:34:25;;;;;;;8.70;7.55;;;16.80;99.90;;;;;;5115710;28;20464;-59
2023/05/21 01:36:59;;;;;;;10.10;7.35;;;16.90;99.90;;;;;;5115006;28;20428;-58
2023/05/21 01:39:32;;;;;;;8.68;7.40;;;16.80;99.90;;;;;;5115786;28;20424;-59
2023/05/21 01:42:02;;;;;;;8.65;7.68;;;16.80;99.90;;;;;;5116121;28;20421;-58
2023/05/21 01:44:29;;;;;;;8.77;7.15;;;16.80;99.90;;;;;;5114589;28;20486;-58
2023/05/21 01:46:58;;;;;;;9.32;7.95;;;16.80;99.90;;;;;;5113533;28;20416;-58
2023/05/21 01:49:25;;;;;;;8.90;6.95;;;16.70;99.90;;;;;;5113960;28;20425;-58
2023/05/21 01:51:53;;;;;;;7.68;6.85;;;16.70;99.90;;;;;;5115945;28;20492;-59
2023/05/21 01:54:20;;;;;;;8.90;8.00;;;16.80;99.90;;;;;;5115780;28;20769;-58
2023/05/21 01:56:49;;;;;;;8.40;7.60;;;16.70;99.90;;;;;;5115830;28;20420;-59
2023/05/21 01:59:17;;;;;;;9.77;7.80;;;16.70;99.90;;;;;;5115074;28;20459;-58
2023/05/21 02:01:44;;;;;;;8.82;7.70;;;16.70;99.90;;;;;;5116117;28;20416;-58
2023/05/21 02:04:11;;;;;;;8.07;7.10;;;16.70;99.90;;;;;;5115174;28;20498;-59
2023/05/21 02:06:40;;;;;;;8.40;7.60;;;16.70;99.90;;;;;;5115499;28;20518;-59
2023/05/21 02:09:08;;;;;;;9.57;7.80;;;16.60;99.90;;;;;;5115769;28;20519;-59
2023/05/21 02:11:35;;;;;;;8.50;7.40;;;16.60;99.90;;;;;;5115508;28;20420;-59
2023/05/21 02:14:04;;;;;;;9.77;8.00;;;16.50;99.90;;;;;;5114575;28;20434;-59
2023/05/21 02:16:31;;;;;;;8.68;7.30;;;16.50;99.90;;;;;;5115292;28;20423;-58
2023/05/21 02:18:59;;;;;;;10.18;8.15;;;16.50;99.90;;;;;;5115524;28;20424;-58
2023/05/21 02:21:26;;;;;;;8.05;7.32;;;16.50;99.90;;;;;;5115386;28;20456;-58
2023/05/21 02:23:53;;;;;;;8.65;7.32;;;16.60;99.90;;;;;;5114423;28;20758;-58
2023/05/21 02:26:21;;;;;;;8.77;7.80;;;16.60;99.90;;;;;;5113647;28;20482;-57
2023/05/21 02:28:48;;;;;;;9.27;7.63;;;16.50;99.90;;;;;;5114151;28;20428;-58
2023/05/21 02:31:16;;;;;;;8.30;7.10;;;16.50;99.90;;;;;;5114124;28;20448;-57
2023/05/21 02:33:43;;;;;;;9.00;7.70;;;16.50;99.90;;;;;;5113425;28;20427;-57
2023/05/21 02:36:11;;;;;;;8.93;7.93;;;16.50;99.90;;;;;;5113942;28;20422;-58
2023/05/21 02:38:42;;;;;;;8.93;7.97;;;16.50;99.90;;;;;;5114205;28;20563;-59
2023/05/21 02:41:09;;;;;;;44.35;39.60;;;16.50;99.90;;;;;;5114665;28;20460;-59
2023/05/21 02:43:36;;;;;;;8.90;8.00;;;16.50;99.90;;;;;;5114407;28;20924;-59
2023/05/21 02:46:06;;;;;;;9.00;8.05;;;16.50;99.90;;;;;;5113992;28;20767;-58
2023/05/21 02:48:34;;;;;;;10.18;8.65;;;16.40;99.90;;;;;;5113971;28;20428;-58
2023/05/21 02:51:01;;;;;;;9.38;8.00;;;16.40;99.90;;;;;;5114596;28;20420;-59
2023/05/21 02:53:28;;;;;;;8.90;7.97;;;16.40;99.90;;;;;;5115117;28;20428;-57
2023/05/21 02:55:56;;;;;;;11.00;8.30;;;16.40;99.90;;;;;;5114993;28;20839;-59
2023/05/21 02:58:24;;;;;;;9.40;8.43;;;16.30;99.90;;;;;;5113592;28;21147;-58
2023/05/21 03:00:52;;;;;;;9.52;8.52;;;16.20;99.90;;;;;;5113419;28;20424;-58
2023/05/21 03:03:19;;;;;;;9.02;7.97;;;16.20;99.90;;;;;;5113068;28;20807;-57
2023/05/21 03:05:48;;;;;;;8.55;6.93;;;16.20;99.90;;;;;;5113376;28;20937;-58
2023/05/21 03:08:15;;;;;;;9.63;8.00;;;16.20;99.90;;;;;;5112472;28;20477;-58
2023/05/21 03:10:43;;;;;;;9.07;7.88;;;16.20;99.90;;;;;;5113073;28;20416;-58
2023/05/21 03:13:10;;;;;;;10.75;8.35;;;16.20;99.90;;;;;;5113640;28;20700;-58
2023/05/21 03:15:37;;;;;;;10.90;8.20;;;16.20;99.90;;;;;;5114113;28;20420;-58
2023/05/21 03:18:04;;;;;;;8.70;7.88;;;16.30;99.90;;;;;;5114176;28;20451;-58
2023/05/21 03:20:32;;;;;;;8.48;7.57;;;16.30;99.90;;;;;;5111749;28;20420;-58
2023/05/21 03:23:02;;;;;;;8.50;7.70;;;16.30;99.90;;;;;;5110730;28;20459;-59
2023/05/21 03:25:30;;;;;;;8.82;7.70;;;16.30;99.90;;;;;;5110423;28;20422;-58
2023/05/21 03:27:57;;;;;;;9.18;8.00;;;16.30;99.90;;;;;;5110544;28;20412;-58
2023/05/21 03:30:24;;;;;;;9.90;8.38;;;16.30;99.90;;;;;;5110716;28;20427;-58
2023/05/21 03:32:51;;;;;;;9.27;8.38;;;16.30;99.90;;;;;;5111454;28;20843;-58
2023/05/21 03:35:18;;;;;;;8.52;7.28;;;16.20;99.90;;;;;;5113794;28;20437;-58
2023/05/21 03:37:46;;;;;;;9.25;8.07;;;16.20;99.90;;;;;;5115511;28;20412;-58
2023/05/21 03:40:15;;;;;;;9.20;8.30;;;16.20;99.90;;;;;;5118656;28;20868;-58
2023/05/21 03:42:42;;;;;;;8.80;7.78;;;16.10;99.90;;;;;;5118042;28;20496;-59
2023/05/21 03:45:10;;;;;;;9.60;7.50;;;16.20;99.90;;;;;;5118103;28;20443;-58
2023/05/21 03:47:37;;;;;;;9.82;7.85;;;16.10;99.90;;;;;;5118753;28;20441;-58
2023/05/21 03:50:05;;;;;;;8.10;7.30;;;16.10;99.90;;;;;;5117843;28;20428;-59
2023/05/21 03:52:32;;;;;;;9.20;8.18;;;16.10;99.90;;;;;;5118254;28;20420;-59
2023/05/21 03:54:59;;;;;;;9.45;8.55;;;16.10;99.90;;;;;;5117949;28;20727;-58
2023/05/21 03:57:28;;;;;;;9.40;8.23;;;16.00;99.90;;;;;;5116935;28;20412;-61
2023/05/21 03:59:57;;;;;;;9.70;8.43;;;16.00;99.90;;;;;;5116909;28;20431;-58
2023/05/21 04:02:25;;;;;;;9.00;8.10;;;16.00;99.90;;;;;;5116604;28;20420;-59
2023/05/21 04:04:54;;;;;;;10.38;7.25;;;16.00;99.90;;;;;;5116973;28;20438;-59
2023/05/21 04:07:21;;;;;;;9.43;8.43;;;16.00;99.90;;;;;;5117432;28;20469;-59
2023/05/21 04:09:48;;;;;;;9.00;8.07;;;16.00;99.90;;;;;;5117754;28;20428;-60
2023/05/21 04:12:16;;;;;;;9.77;8.27;;;15.90;99.90;;;;;;5117689;28;20780;-58
2023/05/21 04:14:45;;;;;;;9.60;8.60;;;15.90;99.90;;;;;;5117708;28;20431;-59
2023/05/21 04:17:12;;;;;;;10.47;8.07;;;15.90;99.90;;;;;;5117657;28;20504;-59
2023/05/21 04:19:40;;;;;;;9.33;8.43;;;16.00;99.90;;;;;;5117490;28;20689;-59
2023/05/21 04:22:07;;;;;;;8.75;7.85;;;16.00;99.90;;;;;;5117312;28;20416;-59
2023/05/21 04:24:36;;;;;;;8.90;7.65;;;16.00;99.90;;;;;;5117714;28;20436;-59
2023/05/21 04:27:05;;;;;;;9.40;8.35;;;16.10;99.90;;;;;;5117300;28;20497;-58
2023/05/21 04:29:32;;;;;;;8.70;7.80;;;16.10;99.90;;;;;;5117589;28;20857;-58
2023/05/21 04:32:01;;;;;;;8.93;7.22;;;16.10;99.90;;;;;;5117529;28;20419;-59
2023/05/21 04:34:28;;;;;;;9.25;8.25;;;16.00;99.90;;;;;;5117071;28;20423;-58
2023/05/21 04:36:55;;;;;;;9.77;7.77;;;16.10;99.90;;;;;;5117954;28;20499;-58
2023/05/21 04:39:22;;;;;;;9.73;7.72;;;16.00;99.90;;;;;;5117143;28;20510;-58
2023/05/21 04:41:53;;;;;;;9.68;8.68;;;16.10;99.90;;;;;;5117908;28;20816;-58
2023/05/21 04:44:20;;;;;;;8.65;7.75;;;16.00;99.90;;;;;;5117508;28;20762;-58
2023/05/21 04:46:47;;;;;;;9.25;8.25;;;16.10;99.90;;;;;;5117068;28;20484;-58
2023/05/21 04:49:16;;;;;;;9.63;8.20;;;16.10;99.90;;;;;;5116499;28;20432;-58
2023/05/21 04:51:43;;;;;;;9.32;7.60;;;16.10;99.90;;;;;;5116718;28;20405;-58
2023/05/21 04:54:10;;;;;;;9.57;8.20;;;16.10;99.90;;;;;;5116962;28;20781;-58
2023/05/21 04:56:37;;;;;;;8.98;7.07;;;16.10;99.90;;;;;;5116783;28;20416;-58
2023/05/21 04:59:05;;;;;;;8.57;7.65;;;16.10;99.90;;;;;;5116841;28;20757;-58
2023/05/21 05:01:34;;;;;;;9.70;7.97;;;16.20;99.90;;;;;;5116647;28;20434;-58
2023/05/21 05:04:01;;;;;;;8.27;7.00;;;16.20;99.90;;;;;;5116445;28;20706;-59
2023/05/21 05:06:29;;;;;;;9.37;8.37;;;16.20;99.90;;;;;;5116344;28;20728;-59
2023/05/21 05:08:57;;;;;;;10.90;8.35;;;16.20;99.90;;;;;;5116117;28;20431;-59
2023/05/21 05:11:24;;;;;;;10.90;9.10;;;15.90;99.90;;;;;;5116746;28;20423;-58
2023/05/21 05:13:52;;;;;;;8.73;7.70;;;15.90;99.90;;;;;;5116193;28;20427;-58
2023/05/21 05:16:23;;;;;;;10.70;8.90;;;15.90;99.90;;;;;;5116353;28;20416;-58
2023/05/21 05:18:51;;;;;;;9.60;8.60;;;16.00;99.90;;;;;;5116659;28;20493;-58
2023/05/21 05:21:18;;;;;;;10.23;8.30;;;16.00;99.90;;;;;;5116367;28;20456;-58
2023/05/21 05:23:47;;;;;;;9.25;8.10;;;16.10;99.90;;;;;;5116253;28;20424;-58
2023/05/21 05:26:14;;;;;;;8.93;7.70;;;16.10;99.90;;;;;;5115759;28;20439;-60
2023/05/21 05:28:41;;;;;;;9.50;8.50;;;16.20;99.90;;;;;;5115594;28;20424;-58
2023/05/21 05:31:08;;;;;;;8.70;7.40;;;16.20;99.90;;;;;;5115744;28;20423;-58
2023/05/21 05:33:35;;;;;;;9.80;7.93;;;16.20;99.90;;;;;;5115555;28;20485;-58
2023/05/21 05:36:03;;;;;;;8.55;7.35;;;16.30;99.90;;;;;;5115359;28;20420;-59
2023/05/21 05:38:30;;;;;;;8.20;7.10;;;16.30;99.90;;;;;;5115009;28;20420;-58
2023/05/21 05:40:58;;;;;;;9.30;7.93;;;16.40;99.90;;;;;;5115642;28;20416;-58
2023/05/21 05:43:25;;;;;;;8.90;7.97;;;16.40;99.90;;;;;;5114913;28;20428;-58
2023/05/21 05:45:52;;;;;;;8.60;7.70;;;16.50;99.90;;;;;;5114442;28;20428;-58
2023/05/21 05:48:19;;;;;;;9.20;8.20;;;16.50;99.90;;;;;;5114470;28;20428;-58
2023/05/21 05:50:47;;;;;;;11.60;9.50;;;16.40;99.90;;;;;;5113024;28;20424;-58
2023/05/21 05:53:14;;;;;;;9.25;8.25;;;16.50;99.90;;;;;;5113919;28;20423;-58
2023/05/21 05:55:42;;;;;;;9.60;7.50;;;16.60;99.90;;;;;;5114443;28;20415;-58
2023/05/21 05:58:10;;;;;;;9.10;8.20;;;16.60;99.90;;;;;;5114766;28;20408;-58
2023/05/21 06:00:37;;;;;;;10.18;8.65;;;16.60;99.90;;;;;;5114944;28;20890;-58
2023/05/21 06:03:04;;;;;;;10.80;8.82;;;16.70;99.90;;;;;;5115200;28;20419;-59
2023/05/21 06:05:31;;;;;;;10.10;7.67;;;16.70;99.90;;;;;;5115378;28;20424;-58
2023/05/21 06:07:59;;;;;;;8.23;7.43;;;16.70;99.90;;;;;;5115588;28;20430;-58
2023/05/21 06:10:26;;;;;;;8.20;7.20;;;16.70;99.90;;;;;;5115296;28;20428;-59
2023/05/21 06:12:53;;;;;;;9.30;8.32;;;16.80;99.90;;;;;;5114561;28;20416;-59
2023/05/21 06:15:21;;;;;;;10.52;8.57;;;16.90;99.90;;;;;;5115670;28;20851;-58
2023/05/21 06:17:48;;;;;;;9.75;7.63;;;16.90;99.90;;;;;;5114974;28;20419;-58
2023/05/21 06:20:16;;;;;;;9.23;7.90;;;17.00;99.90;;;;;;5114954;28;20424;-58
2023/05/21 06:22:43;;;;;;;8.48;7.63;;;17.10;99.90;;;;;;5115514;28;20427;-57
2023/05/21 06:25:10;;;;;;;9.45;8.50;;;17.10;99.90;;;;;;5115499;28;20428;-58
2023/05/21 06:27:38;;;;;;;9.63;8.70;;;17.20;99.90;;;;;;5115540;28;20416;-59
2023/05/21 06:30:06;;;;;;;9.52;8.52;;;17.10;99.90;;;;;;5115415;28;20836;-58
2023/05/21 06:32:34;;;;;;;8.20;7.40;;;17.00;99.90;;;;;;5115271;28;20416;-59
2023/05/21 06:35:01;;;;;;;9.95;6.70;;;16.90;99.90;;;;;;5115335;28;20431;-57
2023/05/21 06:37:28;;;;;;;8.20;7.40;;;16.90;99.90;;;;;;5115187;28;20736;-57
2023/05/21 06:39:55;;;;;;;8.15;7.20;;;17.00;99.90;;;;;;5115527;28;20423;-58
2023/05/21 06:42:22;;;;;;;9.13;7.78;;;17.00;99.90;;;;;;5115199;28;20412;-58
2023/05/21 06:44:49;;;;;;;10.13;8.68;;;17.10;99.90;;;;;;5115190;28;20524;-58
2023/05/21 06:47:17;;;;;;;11.43;8.25;;;17.10;99.90;;;;;;5115176;28;20420;-59
2023/05/21 06:49:45;;;;;;;11.10;9.10;;;17.00;99.90;;;;;;5115319;28;20424;-58
2023/05/21 06:52:12;;;;;;;8.98;8.07;;;17.00;99.90;;;;;;5114253;28;20691;-58
2023/05/21 06:54:39;;;;;;;9.32;8.32;;;17.10;99.90;;;;;;5114944;28;20553;-58
2023/05/21 06:57:06;;;;;;;8.65;7.70;;;17.10;99.90;;;;;;5115232;28;20424;-58
2023/05/21 06:59:33;;;;;;;8.10;7.10;;;17.20;99.90;;;;;;5113893;28;20424;-58
2023/05/21 07:02:01;;;;;;;8.63;7.70;;;17.20;99.90;;;;;;5112550;28;20416;-58
2023/05/21 07:04:28;;;;;;;7.57;6.75;;;17.30;99.90;;;;;;5112914;28;20443;-58
2023/05/21 07:06:58;;;;;;;8.05;7.00;;;17.30;99.90;;;;;;5113548;28;20408;-57
2023/05/21 07:09:25;;;;;;;7.95;7.15;;;17.40;99.90;;;;;;5113649;28;20436;-58
2023/05/21 07:11:52;;;;;;;6.50;5.90;;;17.60;99.90;;;;;;5114474;28;20497;-59
2023/05/21 07:14:22;;;;;;;7.72;7.03;;;17.70;99.90;;;;;;5118749;28;20932;-59
2023/05/21 07:16:49;;;;;;;7.10;6.40;;;17.60;99.90;;;;;;5118395;28;20411;-58
2023/05/21 07:19:16;;;;;;;7.22;6.45;;;17.70;99.90;;;;;;5118704;28;20416;-58
2023/05/21 07:21:43;;;;;;;6.97;6.10;;;17.70;99.90;;;;;;5118775;28;20538;-58
2023/05/21 07:24:11;;;;;;;7.20;6.50;;;17.80;99.90;;;;;;5118664;28;20424;-58
2023/05/21 07:26:39;;;;;;;7.97;7.28;;;17.90;99.90;;;;;;5117545;28;20416;-58
2023/05/21 07:29:06;;;;;;;7.38;6.68;;;18.00;99.90;;;;;;5118640;28;20427;-58
2023/05/21 07:31:33;;;;;;;7.90;7.10;;;18.10;99.90;;;;;;5118624;28;20721;-58
2023/05/21 07:34:00;;;;;;;7.70;6.82;;;18.20;99.90;;;;;;5118604;28;20863;-58
2023/05/21 07:36:28;;;;;;;6.68;6.07;;;18.30;99.90;;;;;;5117315;28;20425;-58
2023/05/21 07:38:55;;;;;;;8.35;7.45;;;18.40;99.90;;;;;;5116855;28;20431;-58
2023/05/21 07:41:23;;;;;;;7.93;6.28;;;18.60;99.90;;;;;;5117051;28;20426;-59
2023/05/21 07:43:50;;;;;;;7.05;6.10;;;18.60;99.90;;;;;;5118458;28;20451;-58
2023/05/21 07:46:18;;;;;;;8.50;7.60;;;18.70;99.90;;;;;;5117942;28;20439;-58
2023/05/21 07:48:45;;;;;;;7.90;7.10;;;18.60;99.90;;;;;;5117138;28;20424;-58
2023/05/21 07:51:12;;;;;;;7.57;6.78;;;18.60;99.90;;;;;;5117591;28;20547;-58
2023/05/21 07:53:39;;;;;;;8.80;7.38;;;18.80;99.90;;;;;;5117084;28;20450;-59
2023/05/21 07:56:07;;;;;;;7.65;6.90;;;18.90;99.90;;;;;;5117767;28;20834;-61
2023/05/21 07:58:36;;;;;;;7.03;6.32;;;19.00;99.90;;;;;;5115822;28;20848;-58
2023/05/21 08:01:03;;;;;;;7.15;6.45;;;19.10;99.90;;;;;;5115140;28;20431;-58
2023/05/21 08:03:30;;;;;;;7.00;6.30;;;19.10;99.90;;;;;;5116707;28;20435;-59
2023/05/21 08:05:57;;;;;;;7.47;6.57;;;19.30;99.90;;;;;;5117335;28;20432;-59
2023/05/21 08:08:25;;;;;;;7.43;6.03;;;19.30;99.90;;;;;;5117759;28;20447;-59
2023/05/21 08:10:52;;;;;;;6.25;5.25;;;19.50;99.90;;;;;;5117132;28;20420;-59
2023/05/21 08:13:19;;;;;;;6.68;5.95;;;19.60;99.90;;;;;;5117167;28;20447;-59
2023/05/21 08:15:48;;;;;;;6.40;5.80;;;19.80;99.90;;;;;;5116264;28;20419;-59
2023/05/21 08:18:16;;;;;;;6.40;5.80;;;20.10;99.90;;;;;;5116390;28;20826;-59
2023/05/21 08:20:44;;;;;;;6.47;5.73;;;20.20;99.90;;;;;;5116945;28;20420;-59
2023/05/21 08:23:11;;;;;;;5.82;5.32;;;20.20;99.90;;;;;;5116686;28;20639;-59
2023/05/21 08:25:38;;;;;;;7.45;6.85;;;20.20;99.90;;;;;;5114218;28;20428;-59
2023/05/21 08:28:05;;;;;;;7.30;6.30;;;20.30;99.90;;;;;;5115768;28;20416;-59
2023/05/21 08:30:32;;;;;;;7.10;6.40;;;20.50;99.90;;;;;;5117278;28;20424;-58
2023/05/21 08:33:01;;;;;;;6.60;5.93;;;20.50;99.90;;;;;;5116803;28;20889;-58
2023/05/21 08:35:28;;;;;;;5.30;4.80;;;20.50;99.90;;;;;;5117131;28;20408;-59
2023/05/21 08:37:55;;;;;;;6.05;5.55;;;20.40;99.90;;;;;;5117393;28;20412;-59
2023/05/21 08:40:22;;;;;;;6.82;4.93;;;20.40;99.90;;;;;;5117016;28;20420;-59
2023/05/21 08:42:50;;;;;;;6.20;5.60;;;20.40;99.90;;;;;;5115622;28;20716;-58
2023/05/21 08:45:21;;;;;;;6.00;5.50;;;20.50;99.90;;;;;;5115997;28;20446;-58
2023/05/21 08:47:52;;;;;;;8.35;5.45;;;20.60;99.90;;;;;;5117032;28;20510;-58
2023/05/21 08:50:21;;;;;;;6.57;5.97;;;20.80;99.90;;;;;;5116773;28;20420;-58
2023/05/21 08:52:50;;;;;;;7.88;6.80;;;20.80;99.90;;;;;;5117141;28;20412;-58
2023/05/21 08:55:17;;;;;;;6.72;6.13;;;20.80;99.90;;;;;;5115855;28;20432;-58
2023/05/21 08:57:45;;;;;;;6.10;4.87;;;20.80;99.90;;;;;;5116752;28;20408;-58
2023/05/21 09:00:13;;;;;;;7.68;6.47;;;20.70;99.90;;;;;;5116955;28;20743;-58
2023/05/21 09:02:42;;;;;;;5.13;4.63;;;20.70;99.90;;;;;;5116797;28;20774;-58
2023/05/21 09:05:10;;;;;;;6.15;5.55;;;20.90;99.90;;;;;;5117111;28;20857;-60
2023/05/21 09:07:43;;;;;;;5.85;4.53;;;21.20;99.90;;;;;;5117006;28;20423;-59
2023/05/21 09:10:13;;;;;;;5.00;4.60;;;21.40;99.90;;;;;;5116711;28;20497;-59
2023/05/21 09:12:41;;;;;;;5.77;5.27;;;21.50;99.90;;;;;;5116427;28;20424;-59
2023/05/21 09:15:09;;;;;;;5.72;5.05;;;21.50;99.90;;;;;;5116092;28;20539;-59
2023/05/21 09:17:36;;;;;;;7.90;5.95;;;21.50;99.90;;;;;;5115350;28;20420;-59
2023/05/21 09:20:11;;;;;;;6.45;5.60;;;21.50;99.90;;;;;;5114234;28;20451;-59
2023/05/21 09:22:41;;;;;;;5.80;5.28;;;21.30;99.90;;;;;;5112748;28;20485;-59
2023/05/21 09:25:10;;;;;;;5.20;4.50;;;21.50;99.90;;;;;;5115351;28;20440;-59
2023/05/21 09:27:37;;;;;;;6.20;5.68;;;21.60;99.90;;;;;;5113528;28;20500;-59
2023/05/21 09:30:09;;;;;;;5.25;4.75;;;21.80;99.90;;;;;;5111163;28;20508;-59
2023/05/21 09:32:36;;;;;;;4.95;4.45;;;21.70;99.90;;;;;;5112243;28;20447;-59
2023/05/21 09:35:11;;;;;;;4.70;4.30;;;21.80;99.90;;;;;;5113809;28;20424;-59
2023/05/21 09:37:39;;;;;;;4.18;3.88;;;21.90;99.90;;;;;;5114760;28;20420;-59
2023/05/21 09:40:17;;;;;;;6.05;5.07;;;21.80;99.90;;;;;;5112949;28;20769;-59
2023/05/21 09:42:47;;;;;;;4.40;4.00;;;21.60;99.90;;;;;;5114681;28;20424;-60
2023/05/21 09:45:18;;;;;;;3.80;3.43;;;21.80;99.90;;;;;;5114670;28;20770;-59
2023/05/21 09:47:47;;;;;;;5.15;4.30;;;21.90;99.90;;;;;;5113540;28;20420;-59
2023/05/21 09:50:17;;;;;;;5.00;4.25;;;22.10;99.90;;;;;;5114688;28;20770;-59
2023/05/21 09:52:46;;;;;;;4.43;4.03;;;22.20;99.90;;;;;;5114825;28;20424;-59
2023/05/21 09:55:14;;;;;;;4.13;3.83;;;22.40;99.90;;;;;;5112077;28;20734;-59
2023/05/21 09:57:42;;;;;;;3.88;3.58;;;22.50;99.90;;;;;;5114306;28;20415;-59
2023/05/21 10:00:18;;;;;;;3.70;2.90;;;22.60;99.90;;;;;;5115033;28;20475;-59
2023/05/21 10:02:46;;;;;;;4.00;3.70;;;22.50;99.90;;;;;;5114574;28;20847;-58
2023/05/21 10:05:15;;;;;;;4.38;3.17;;;22.50;99.90;;;;;;5113778;28;20463;-58
2023/05/21 10:07:44;;;;;;;3.17;2.70;;;22.60;99.90;;;;;;5113769;28;20789;-58
2023/05/21 10:10:14;;;;;;;4.13;3.50;;;23.00;99.90;;;;;;5113348;28;20424;-58
2023/05/21 10:12:44;;;;;;;6.05;3.50;;;23.00;99.90;;;;;;5112665;28;20444;-58
2023/05/21 10:15:15;;;;;;;3.83;3.53;;;23.20;99.90;;;;;;5113466;28;20915;-58
2023/05/21 10:17:43;;;;;;;3.10;2.90;;;22.90;99.90;;;;;;5113729;28;20511;-59
2023/05/21 10:20:11;;;;;;;4.00;2.83;;;22.90;99.90;;;;;;5114228;28;20874;-58
2023/05/21 10:22:39;;;;;;;4.90;4.25;;;23.10;99.90;;;;;;5111845;28;20515;-58
2023/05/21 10:25:08;;;;;;;3.42;3.22;;;22.60;99.90;;;;;;5114850;28;20906;-59
2023/05/21 10:27:37;;;;;;;3.20;2.90;;;22.70;99.90;;;;;;5112262;28;20432;-58
2023/05/21 10:30:06;;;;;;;5.10;4.60;;;22.90;99.90;;;;;;5113500;28;20449;-58
2023/05/21 10:32:33;;;;;;;4.23;3.83;;;23.00;99.90;;;;;;5111929;28;20736;-58
2023/05/21 10:35:01;;;;;;;3.85;3.33;;;23.10;99.90;;;;;;5110735;28;20436;-59
2023/05/21 10:37:28;;;;;;;3.90;3.50;;;23.20;99.90;;;;;;5109991;28;20527;-59
2023/05/21 10:39:56;;;;;;;3.50;3.20;;;23.10;99.90;;;;;;5109457;28;20424;-58
2023/05/21 10:42:47;;;;;;;3.97;3.67;;;23.00;99.90;;;;;;5112307;28;20454;-58
2023/05/21 10:45:23;;;;;;;3.97;3.67;;;23.00;99.90;;;;;;5113320;28;20430;-58
2023/05/21 10:48:12;;;;;;;3.40;3.10;;;23.10;99.90;;;;;;5115114;28;20427;-58
2023/05/21 10:51:09;;;;;;;3.60;3.07;;;22.90;99.90;;;;;;5118727;28;20428;-58
2023/05/21 10:53:50;;;;;;;3.67;3.38;;;23.00;99.90;;;;;;5118767;28;20427;-59
2023/05/21 10:56:24;;;;;;;3.35;3.13;;;23.00;99.90;;;;;;5117370;28;20480;-59
2023/05/21 10:59:11;;;;;;;3.97;3.67;;;23.10;99.90;;;;;;5117073;28;20470;-59
2023/05/21 11:01:40;;;;;;;3.75;3.35;;;23.20;99.90;;;;;;5114642;28;20715;-58
2023/05/21 11:04:07;;;;;;;4.07;3.25;;;23.30;99.90;;;;;;5116442;28;20435;-59
2023/05/21 11:06:34;;;;;;;4.70;3.60;;;23.20;99.90;;;;;;5114695;28;20489;-59
2023/05/21 11:09:11;;;;;;;4.22;3.20;;;23.40;99.90;;;;;;5117658;28;20427;-58
2023/05/21 11:11:43;;;;;;;3.20;2.90;;;23.60;99.90;;;;;;5115052;28;20487;-58
2023/05/21 11:14:33;;;;;;;4.07;3.40;;;23.70;99.90;;;;;;5118346;28;20447;-59
2023/05/21 11:17:02;;;;;;;3.35;3.00;;;23.80;99.90;;;;;;5096007;28;20425;-59
2023/05/21 11:19:37;;;;;;;3.72;3.42;;;24.00;99.90;;;;;;5097606;28;20453;-58
2023/05/21 11:22:09;;;;;;;4.80;4.23;;;24.10;99.90;;;;;;5116973;28;20423;-58
2023/05/21 11:24:41;;;;;;;3.60;3.30;;;24.20;99.90;;;;;;5116509;28;20768;-58
2023/05/21 11:27:08;;;;;;;4.83;3.97;;;24.20;99.90;;;;;;5117699;28;20521;-59
2023/05/21 11:29:46;;;;;;;3.63;3.28;;;24.10;99.90;;;;;;5116723;28;20522;-59
2023/05/21 11:32:19;;;;;;;3.40;3.10;;;24.20;99.90;;;;;;5096676;28;20538;-58
2023/05/21 11:34:47;;;;;;;4.38;3.35;;;24.10;99.90;;;;;;5099798;28;20451;-59
2023/05/21 11:37:27;;;;;;;3.10;2.70;;;24.30;99.90;;;;;;5101528;28;20459;-59
2023/05/21 11:39:55;;;;;;;4.22;3.20;;;24.60;99.90;;;;;;5113189;28;20439;-59
2023/05/21 11:42:33;;;;;;;3.05;2.53;;;24.80;99.90;;;;;;5110714;28;20472;-59
2023/05/21 11:45:02;;;;;;;3.65;3.00;;;24.90;99.90;;;;;;5117577;28;20435;-59
2023/05/21 11:47:30;;;;;;;3.05;2.85;;;24.80;99.90;;;;;;5117695;28;20920;-58
2023/05/21 11:49:59;;;;;;;3.88;3.03;;;24.80;99.90;;;;;;5116859;28;20881;-58
2023/05/21 11:52:29;;;;;;;3.50;2.80;;;24.60;99.90;;;;;;5115356;28;20428;-59
2023/05/21 11:54:57;;;;;;;2.53;2.25;;;24.70;99.90;;;;;;5117618;28;20869;-58
2023/05/21 11:57:29;;;;;;;2.80;2.60;;;24.60;99.90;;;;;;5117539;28;20417;-59
2023/05/21 11:59:58;;;;;;;3.03;2.83;;;24.50;99.90;;;;;;5111794;28;20438;-58
2023/05/21 12:02:28;;;;;;;2.80;2.33;;;24.60;99.90;;;;;;5094116;28;20426;-58
2023/05/21 12:04:59;;;;;;;4.90;2.80;;;24.70;99.90;;;;;;5116781;28;20463;-58
2023/05/21 12:07:28;;;;;;;3.40;3.10;;;24.70;99.90;;;;;;5096945;28;20492;-59
2023/05/21 12:09:55;;;;;;;4.00;2.90;;;24.70;99.90;;;;;;5096445;28;20555;-58
2023/05/21 12:12:25;;;;;;;2.77;2.57;;;24.60;99.90;;;;;;5092633;28;20726;-58
2023/05/21 12:14:54;;;;;;;3.75;3.45;;;24.20;99.90;;;;;;5093315;28;20473;-58
2023/05/21 12:17:23;;;;;;;2.90;2.70;;;24.40;99.90;;;;;;5093848;28;21034;-58
2023/05/21 12:19:54;;;;;;;3.00;2.47;;;24.60;99.90;;;;;;5095016;28;20441;-58
2023/05/21 12:22:22;;;;;;;2.70;2.50;;;24.50;99.90;;;;;;5095540;28;20499;-58
2023/05/21 12:24:49;;;;;;;3.10;2.80;;;24.60;99.90;;;;;;5095788;28;20417;-58
2023/05/21 12:27:17;;;;;;;3.00;2.70;;;24.60;99.90;;;;;;5094765;28;20446;-58
2023/05/21 12:29:45;;;;;;;2.92;2.70;;;24.60;99.90;;;;;;5096599;28;20418;-58
2023/05/21 12:32:13;;;;;;;2.40;2.20;;;24.60;99.90;;;;;;5097158;28;20426;-58
2023/05/21 12:34:43;;;;;;;2.50;2.30;;;24.80;99.90;;;;;;5096830;28;20445;-58
2023/05/21 12:37:12;;;;;;;2.50;2.10;;;24.80;99.90;;;;;;5096803;28;20430;-58
2023/05/21 12:39:44;;;;;;;3.40;2.10;;;25.10;99.90;;;;;;5094788;28;20414;-58
2023/05/21 12:42:12;;;;;;;2.67;2.47;;;25.20;99.90;;;;;;5097057;28;20430;-58
2023/05/21 12:44:40;;;;;;;3.43;2.00;;;25.30;99.90;;;;;;5095726;28;20424;-58
2023/05/21 12:47:07;;;;;;;2.20;2.00;;;25.10;99.90;;;;;;5096131;28;20488;-58
2023/05/21 12:49:36;;;;;;;2.50;2.30;;;25.10;99.90;;;;;;5096790;28;20429;-58
2023/05/21 12:52:09;;;;;;;2.50;2.00;;;25.10;99.90;;;;;;5096458;28;20426;-58